« 明野駐屯地開設62周年航空祭 明野飛行場 2017/11/4 sat | トップページ | 芝山1 成田国際空港 2017/10/26 thu »

2017/11/10

定点 富山空港 2017/11/10 fri

お隣小松は、祭りとな・・ 河原は、いたってのんびり

RJNT 100000Z 24003KT 190V290 9999 FEW030 SCT/// 10/04 Q1021

20171110_rjnt_00ja57an

20171110_rjnt_01ja57an

ANA316 RJNT-RJTT JA57AN B737-881

RJNT 100100Z 07004KT 020V120 9999 FEW040 BKN/// 12/04 Q1020

20171110_rjnt_02ja6516

JA6516 AS350B3 AKF

20171110_rjnt_03ja4021

JA4021 C172 なんか、体調不良で降りてきた

20171110_rjnt_04ja6512

JA6512 AS350B3 AKF

RJNT 100200Z 34004KT 310V010 9999 FEW040 BKN/// 14/04 Q1018

20171110_rjnt_05ja4021

JA4021 しばらく休憩の後、西に飛び立っていった

20171110_rjnt_06ja59an

20171110_rjnt_07ja59an

20171110_rjnt_08ja59an

20171110_rjnt_09ja59an

ANA315 RJTT-RJNT JA59AN B737-881

20171110_rjnt_10b18651

20171110_rjnt_11b18651

20171110_rjnt_12b18651_2

CAL170 RCTP-RJNT B-18651 B737-8Q8

RJNT 100300Z 36006KT 320V030 9999 FEW040 SCT/// 16/05 Q1017

20171110_rjnt_13ja59an

20171110_rjnt_14ja59an

ANA1181 RJNT-RJCC JA59AN B737-881

20171110_rjnt_15ja6512

JA6512 女史お帰り

20171110_rjnt_16b18651

CAL171 RJNT-RCTP B-18651 B737-8Q8

RJNT 100400Z 36007KT 9999 FEW040 SCT/// 15/06 Q1015

20171110_rjnt_17tateyama

気持ちよい青空に白金の立山

|

« 明野駐屯地開設62周年航空祭 明野飛行場 2017/11/4 sat | トップページ | 芝山1 成田国際空港 2017/10/26 thu »

富山空港」カテゴリの記事

コメント

コメントを書く



(ウェブ上には掲載しません)


コメントは記事投稿者が公開するまで表示されません。



トラックバック


この記事へのトラックバック一覧です: 定点 富山空港 2017/11/10 fri:

« 明野駐屯地開設62周年航空祭 明野飛行場 2017/11/4 sat | トップページ | 芝山1 成田国際空港 2017/10/26 thu »